Aviation Digital Data Service (ADDS)

Output produced by METARs form (0513 UTC 28 March 2015)
found at http://aviationweather.gov/adds/metars/
 
KHPN 272340Z 2800/2824 33006KT P6SM BKN045 
     FM280500 33012KT P6SM BKN120 
     FM281300 33013G20KT P6SM FEW040 BKN070 
     FM281900 33013G20KT P6SM VCSH BKN035 
     FM282200 32013G20KT P6SM VCSH OVC035 AMD NOT SKED